createdAt,value
2024-03-18T00:00:58.963Z,6.46
2024-03-18T00:01:58.915Z,6.48
2024-03-18T00:02:58.936Z,6.48
2024-03-18T00:03:58.900Z,6.51
2024-03-18T00:04:58.912Z,6.54
2024-03-18T00:05:58.868Z,6.55
2024-03-18T00:06:58.884Z,6.55
2024-03-18T00:07:58.861Z,6.58
2024-03-18T00:08:58.877Z,6.62
2024-03-18T00:09:58.842Z,6.64
2024-03-18T00:10:58.852Z,6.64
2024-03-18T00:11:58.803Z,6.66
2024-03-18T00:12:58.812Z,6.67
2024-03-18T00:13:58.792Z,6.64
2024-03-18T00:14:58.807Z,6.67
2024-03-18T00:15:58.760Z,6.66
2024-03-18T00:16:58.784Z,6.66
2024-03-18T00:17:58.745Z,6.67
2024-03-18T00:18:58.752Z,6.69
2024-03-18T00:19:58.722Z,6.67
2024-03-18T00:20:58.735Z,6.69
2024-03-18T00:21:58.696Z,6.69
2024-03-18T00:22:58.703Z,6.69
2024-03-18T00:23:58.675Z,6.67
2024-03-18T00:24:58.702Z,6.66
2024-03-18T00:25:58.664Z,6.67
2024-03-18T00:26:58.689Z,6.64
2024-03-18T00:27:58.629Z,6.64
2024-03-18T00:28:58.651Z,6.61
2024-03-18T00:29:58.628Z,6.61
2024-03-18T00:30:58.614Z,6.59
2024-03-18T00:31:58.592Z,6.56
2024-03-18T00:32:58.608Z,6.58
2024-03-18T00:33:58.589Z,6.58
2024-03-18T00:34:58.597Z,6.58
2024-03-18T00:35:58.553Z,6.58
2024-03-18T00:36:58.579Z,6.58
2024-03-18T00:37:58.528Z,6.56
2024-03-18T00:38:58.553Z,6.58
2024-03-18T00:39:58.503Z,6.58
2024-03-18T00:40:58.511Z,6.59
2024-03-18T00:41:58.485Z,6.61
2024-03-18T00:42:58.511Z,6.58
2024-03-18T00:43:58.481Z,6.58
2024-03-18T00:44:58.494Z,6.56
2024-03-18T00:45:58.443Z,6.54
2024-03-18T00:46:58.462Z,6.54
2024-03-18T00:47:58.443Z,6.54
2024-03-18T00:48:58.447Z,6.51
2024-03-18T00:49:58.414Z,6.48
2024-03-18T00:50:58.401Z,6.48
2024-03-18T00:51:58.383Z,6.44
2024-03-18T00:52:58.393Z,6.41
2024-03-18T00:53:58.356Z,6.40
2024-03-18T00:54:58.377Z,6.40
2024-03-18T00:55:58.357Z,6.40
2024-03-18T00:56:58.352Z,6.40
2024-03-18T00:57:58.312Z,6.40
2024-03-18T00:58:58.332Z,6.40
2024-03-18T00:59:58.292Z,6.38
2024-03-18T01:00:58.342Z,6.34
2024-03-18T01:01:58.284Z,6.33
2024-03-18T01:02:58.293Z,6.34
2024-03-18T01:03:58.247Z,6.36
2024-03-18T01:04:58.266Z,6.38
2024-03-18T01:05:58.253Z,6.40
2024-03-18T01:06:58.251Z,6.43
2024-03-18T01:07:58.199Z,6.44
2024-03-18T01:08:58.212Z,6.44
2024-03-18T01:09:58.183Z,6.46
2024-03-18T01:10:58.213Z,6.48
2024-03-18T01:11:58.160Z,6.48
2024-03-18T01:12:58.164Z,6.48
2024-03-18T01:13:58.137Z,6.48
2024-03-18T01:14:58.139Z,6.48
2024-03-18T01:15:58.116Z,6.46
2024-03-18T01:16:58.153Z,6.44
2024-03-18T01:17:58.111Z,6.44
2024-03-18T01:18:58.111Z,6.43
2024-03-18T01:19:58.070Z,6.43
2024-03-18T01:20:58.108Z,6.43
2024-03-18T01:21:58.051Z,6.37
2024-03-18T01:22:58.074Z,6.37
2024-03-18T01:23:58.036Z,6.36
2024-03-18T01:24:58.068Z,6.33
2024-03-18T01:25:58.004Z,6.33
2024-03-18T01:26:58.006Z,6.33
2024-03-18T01:27:57.981Z,6.33
2024-03-18T01:28:57.987Z,6.31
2024-03-18T01:29:57.961Z,6.33
2024-03-18T01:30:57.995Z,6.33
2024-03-18T01:31:57.944Z,6.33
2024-03-18T01:32:57.961Z,6.34
2024-03-18T01:33:57.916Z,6.34
2024-03-18T01:34:57.920Z,6.34
2024-03-18T01:35:57.900Z,6.34
2024-03-18T01:36:57.920Z,6.34
2024-03-18T01:37:57.870Z,6.34
2024-03-18T01:38:57.876Z,6.34
2024-03-18T01:39:57.848Z,6.34
2024-03-18T01:40:57.866Z,6.31
2024-03-18T01:41:57.836Z,6.33
2024-03-18T01:42:57.848Z,6.34
2024-03-18T01:43:57.851Z,6.34
2024-03-18T01:44:57.820Z,6.33
2024-03-18T01:45:57.780Z,6.28
2024-03-18T01:46:57.809Z,6.28
2024-03-18T01:47:57.796Z,6.27
2024-03-18T01:48:57.770Z,6.22
2024-03-18T01:49:57.750Z,6.19
2024-03-18T01:50:57.751Z,6.21
2024-03-18T01:51:57.718Z,6.21
2024-03-18T01:52:57.768Z,6.21
2024-03-18T01:53:57.705Z,6.21
2024-03-18T01:54:57.723Z,6.19
2024-03-18T01:55:57.675Z,6.18
2024-03-18T01:56:57.704Z,6.17
2024-03-18T01:57:57.683Z,6.14
2024-03-18T01:58:57.646Z,6.11
2024-03-18T01:59:57.653Z,6.11
2024-03-18T02:00:57.622Z,6.09
2024-03-18T02:01:57.640Z,6.08
2024-03-18T02:02:57.607Z,6.06
2024-03-18T02:03:57.621Z,6.08
2024-03-18T02:04:57.598Z,6.11
2024-03-18T02:05:57.614Z,6.09
2024-03-18T02:06:57.555Z,6.11
2024-03-18T02:07:57.593Z,6.09
2024-03-18T02:08:57.553Z,6.09
2024-03-18T02:09:57.588Z,6.09
2024-03-18T02:10:57.521Z,6.08
2024-03-18T02:11:57.520Z,6.04
2024-03-18T02:12:57.485Z,6.04
2024-03-18T02:13:57.492Z,6.01
2024-03-18T02:14:57.468Z,6.03
2024-03-18T02:15:57.502Z,5.99
2024-03-18T02:16:57.444Z,5.96
2024-03-18T02:17:57.483Z,5.97
2024-03-18T02:18:57.422Z,5.97
2024-03-18T02:19:57.455Z,5.96
2024-03-18T02:20:57.428Z,5.96
2024-03-18T02:21:57.425Z,5.94
2024-03-18T02:22:57.395Z,5.93
2024-03-18T02:23:57.399Z,5.93
2024-03-18T02:24:57.357Z,5.90
2024-03-18T02:25:57.366Z,5.89
2024-03-18T02:26:57.334Z,5.85
2024-03-18T02:27:57.361Z,5.82
2024-03-18T02:28:57.314Z,5.78
2024-03-18T02:29:57.322Z,5.76
2024-03-18T02:30:57.297Z,5.72
2024-03-18T02:31:57.312Z,5.72
2024-03-18T02:32:57.277Z,5.71
2024-03-18T02:33:57.298Z,5.68
2024-03-18T02:34:57.246Z,5.68
2024-03-18T02:35:57.272Z,5.65
2024-03-18T02:36:57.230Z,5.65
2024-03-18T02:37:57.261Z,5.63
2024-03-18T02:38:57.224Z,5.63
2024-03-18T02:39:57.241Z,5.61
2024-03-18T02:40:57.188Z,5.61
2024-03-18T02:41:57.193Z,5.57
2024-03-18T02:42:57.170Z,5.57
2024-03-18T02:43:57.204Z,5.53
2024-03-18T02:44:57.150Z,5.49
2024-03-18T02:45:57.158Z,5.48
2024-03-18T02:46:57.129Z,5.45
2024-03-18T02:47:57.142Z,5.42
2024-03-18T02:48:57.110Z,5.39
2024-03-18T02:49:57.114Z,5.39
2024-03-18T02:50:57.073Z,5.39
2024-03-18T02:51:57.093Z,5.38
2024-03-18T02:52:57.057Z,5.35
2024-03-18T02:53:57.058Z,5.35
2024-03-18T02:54:57.037Z,5.30
2024-03-18T02:55:57.045Z,5.31
2024-03-18T02:56:57.006Z,5.33
2024-03-18T02:57:57.021Z,5.31
2024-03-18T02:58:56.982Z,5.33
2024-03-18T02:59:57.002Z,5.33
2024-03-18T03:00:56.959Z,5.33
2024-03-18T03:01:56.973Z,5.31
2024-03-18T03:02:56.938Z,5.28
2024-03-18T03:03:56.952Z,5.28
2024-03-18T03:04:56.927Z,5.28
2024-03-18T03:05:56.947Z,5.30
2024-03-18T03:06:56.897Z,5.30
2024-03-18T03:07:56.929Z,5.31
2024-03-18T03:08:56.881Z,5.31
2024-03-18T03:09:56.899Z,5.30
2024-03-18T03:10:56.880Z,5.28
2024-03-18T03:11:56.886Z,5.28
2024-03-18T03:12:56.851Z,5.30
2024-03-18T03:13:56.855Z,5.31
2024-03-18T03:14:56.826Z,5.31
2024-03-18T03:15:56.822Z,5.31
2024-03-18T03:16:56.814Z,5.31
2024-03-18T03:17:56.802Z,5.33
2024-03-18T03:18:56.779Z,5.31
2024-03-18T03:19:56.805Z,5.30
2024-03-18T03:20:56.751Z,5.31
2024-03-18T03:21:56.768Z,5.27
2024-03-18T03:22:56.751Z,5.24
2024-03-18T03:23:56.735Z,5.22
2024-03-18T03:24:56.709Z,5.21
2024-03-18T03:25:56.735Z,5.18
2024-03-18T03:26:56.684Z,5.18
2024-03-18T03:27:56.707Z,5.17
2024-03-18T03:28:56.697Z,5.15
2024-03-18T03:29:56.677Z,5.15
2024-03-18T03:30:56.644Z,5.15
2024-03-18T03:31:56.677Z,5.12
2024-03-18T03:32:56.620Z,5.13
2024-03-18T03:33:56.656Z,5.13
2024-03-18T03:34:56.614Z,5.12
2024-03-18T03:35:56.605Z,5.13
2024-03-18T03:36:56.579Z,5.12
2024-03-18T03:37:56.596Z,5.15
2024-03-18T03:38:56.570Z,5.13
2024-03-18T03:39:56.590Z,5.13
2024-03-18T03:40:56.568Z,5.12
2024-03-18T03:41:56.544Z,5.12
2024-03-18T03:42:56.529Z,5.10
2024-03-18T03:43:56.582Z,5.06
2024-03-18T03:44:56.489Z,5.04
2024-03-18T03:45:56.514Z,4.99
2024-03-18T03:46:56.492Z,4.96
2024-03-18T03:47:56.496Z,4.94
2024-03-18T03:48:56.457Z,4.89
2024-03-18T03:49:56.515Z,4.89
2024-03-18T03:50:56.429Z,4.89
2024-03-18T03:51:56.456Z,4.89
2024-03-18T03:52:56.429Z,4.89
2024-03-18T03:53:56.420Z,4.86
2024-03-18T03:54:56.398Z,4.86
2024-03-18T03:55:56.459Z,4.85
2024-03-18T03:56:56.384Z,4.84
2024-03-18T03:57:56.369Z,4.84
2024-03-18T03:58:56.422Z,4.85
2024-03-18T03:59:56.364Z,4.86
2024-03-18T04:00:56.353Z,4.86
2024-03-18T04:01:56.409Z,4.86
2024-03-18T04:02:56.300Z,4.85
2024-03-18T04:03:56.310Z,4.80
2024-03-18T04:04:56.317Z,4.78
2024-03-18T04:05:56.303Z,4.75
2024-03-18T04:06:56.278Z,4.73
2024-03-18T04:07:56.320Z,4.73
2024-03-18T04:08:56.240Z,4.72
2024-03-18T04:09:56.254Z,4.73
2024-03-18T04:10:56.236Z,4.70
2024-03-18T04:11:56.234Z,4.73
2024-03-18T04:12:56.199Z,4.73
2024-03-18T04:13:56.245Z,4.73
2024-03-18T04:14:56.187Z,4.70
2024-03-18T04:15:56.205Z,4.70
2024-03-18T04:16:56.195Z,4.70
2024-03-18T04:17:56.176Z,4.67
2024-03-18T04:18:56.139Z,4.67
2024-03-18T04:19:56.205Z,4.67
2024-03-18T04:20:56.113Z,4.66
2024-03-18T04:21:56.130Z,4.66
2024-03-18T04:22:56.125Z,4.63
2024-03-18T04:23:56.124Z,4.63
2024-03-18T04:24:56.080Z,4.63
2024-03-18T04:25:56.142Z,4.62
2024-03-18T04:26:56.051Z,4.62
2024-03-18T04:27:56.056Z,4.59
2024-03-18T04:28:56.063Z,4.58
2024-03-18T04:29:56.054Z,4.55
2024-03-18T04:30:56.009Z,4.52
2024-03-18T04:31:56.079Z,4.50
2024-03-18T04:32:55.994Z,4.45
2024-03-18T04:33:56.001Z,4.44
2024-03-18T04:34:55.987Z,4.37
2024-03-18T04:35:55.991Z,4.34
2024-03-18T04:36:55.944Z,4.32
2024-03-18T04:37:55.989Z,4.30
2024-03-18T04:38:55.927Z,4.30
2024-03-18T04:39:55.941Z,4.27
2024-03-18T04:40:55.928Z,4.24
2024-03-18T04:41:55.908Z,4.24
2024-03-18T04:42:55.880Z,4.27
2024-03-18T04:43:55.912Z,4.27
2024-03-18T04:44:55.862Z,4.29
2024-03-18T04:45:55.907Z,4.29
2024-03-18T04:46:55.869Z,4.27
2024-03-18T04:47:55.845Z,4.29
2024-03-18T04:48:55.842Z,4.27
2024-03-18T04:49:55.837Z,4.27
2024-03-18T04:50:55.800Z,4.24
2024-03-18T04:51:55.815Z,4.24
2024-03-18T04:52:55.782Z,4.23
2024-03-18T04:53:55.828Z,4.22
2024-03-18T04:54:55.757Z,4.18
2024-03-18T04:55:55.745Z,4.16
2024-03-18T04:56:55.754Z,4.15
2024-03-18T04:57:55.706Z,4.15
2024-03-18T04:58:55.702Z,4.14
2024-03-18T04:59:55.722Z,4.12
2024-03-18T05:00:55.700Z,4.11
2024-03-18T05:01:55.750Z,4.11
2024-03-18T05:02:55.645Z,4.12
2024-03-18T05:03:55.709Z,4.14
2024-03-18T05:04:55.662Z,4.14
2024-03-18T05:05:55.647Z,4.15
2024-03-18T05:06:55.584Z,4.16
2024-03-18T05:07:55.626Z,4.20
2024-03-18T05:08:55.583Z,4.18
2024-03-18T05:09:55.586Z,4.14
2024-03-18T05:10:55.554Z,4.14
2024-03-18T05:11:55.566Z,4.12
2024-03-18T05:12:55.529Z,4.11
2024-03-18T05:13:55.577Z,4.09
2024-03-18T05:14:55.505Z,4.09
2024-03-18T05:15:55.540Z,4.08
2024-03-18T05:16:55.481Z,4.08
2024-03-18T05:17:55.495Z,4.06
2024-03-18T05:18:55.457Z,4.08
2024-03-18T05:19:55.498Z,4.06
2024-03-18T05:20:55.435Z,4.09
2024-03-18T05:21:55.439Z,4.09
2024-03-18T05:22:55.418Z,4.11
2024-03-18T05:23:55.415Z,4.12
2024-03-18T05:24:55.411Z,4.12
2024-03-18T05:25:55.438Z,4.14
2024-03-18T05:26:55.388Z,4.14
2024-03-18T05:27:55.409Z,4.12
2024-03-18T05:28:55.368Z,4.09
2024-03-18T05:29:55.372Z,4.05
2024-03-18T05:30:55.325Z,3.94
2024-03-18T05:31:55.383Z,3.86
2024-03-18T05:32:55.312Z,3.87
2024-03-18T05:33:55.314Z,3.86
2024-03-18T05:34:55.295Z,3.87
2024-03-18T05:35:55.294Z,3.88
2024-03-18T05:36:55.288Z,3.91
2024-03-18T05:37:55.284Z,3.91
2024-03-18T05:38:55.244Z,3.93
2024-03-18T05:39:55.268Z,3.91
2024-03-18T05:40:55.255Z,3.90
2024-03-18T05:41:55.246Z,3.93
2024-03-18T05:42:55.207Z,3.94
2024-03-18T05:43:55.270Z,3.98
2024-03-18T05:44:55.182Z,4.00
2024-03-18T05:45:55.244Z,4.05
2024-03-18T05:46:55.179Z,4.06
2024-03-18T05:47:55.184Z,4.09
2024-03-18T05:48:55.161Z,4.12
2024-03-18T05:49:55.205Z,4.15
2024-03-18T05:50:55.139Z,4.15
2024-03-18T05:51:55.139Z,4.15
2024-03-18T05:52:55.133Z,4.14
2024-03-18T05:53:55.110Z,4.12
2024-03-18T05:54:55.076Z,4.14
2024-03-18T05:55:55.109Z,4.16
2024-03-18T05:56:55.092Z,4.22
2024-03-18T05:57:55.067Z,4.26
2024-03-18T05:58:55.073Z,4.29
2024-03-18T05:59:55.055Z,4.30
2024-03-18T06:00:55.020Z,4.30
2024-03-18T06:01:55.041Z,4.33
2024-03-18T06:02:55.018Z,4.33
2024-03-18T06:03:55.004Z,4.36
2024-03-18T06:04:54.981Z,4.40
2024-03-18T06:05:54.993Z,4.41
2024-03-18T06:06:54.950Z,4.42
2024-03-18T06:07:54.983Z,4.47
2024-03-18T06:08:54.957Z,4.50
2024-03-18T06:09:54.938Z,4.50
2024-03-18T06:10:54.917Z,4.54
2024-03-18T06:11:54.931Z,4.58
2024-03-18T06:12:54.988Z,4.58
2024-03-18T06:13:54.912Z,4.50
2024-03-18T06:14:55.123Z,4.47
2024-03-18T06:15:54.956Z,4.48
2024-03-18T06:16:54.863Z,4.45
2024-03-18T06:17:54.834Z,4.45
2024-03-18T06:18:54.866Z,4.47
2024-03-18T06:19:54.828Z,4.47
2024-03-18T06:20:57.352Z,4.52
2024-03-18T06:21:54.858Z,4.59
2024-03-18T06:22:54.836Z,4.63
2024-03-18T06:23:54.769Z,4.67
2024-03-18T06:24:54.786Z,4.72
2024-03-18T06:25:54.762Z,4.77
2024-03-18T06:26:54.771Z,4.84
2024-03-18T06:27:54.725Z,4.92
2024-03-18T06:28:54.748Z,5.00
2024-03-18T06:29:54.706Z,5.06
2024-03-18T06:30:54.723Z,5.10
2024-03-18T06:31:54.687Z,5.12
2024-03-18T06:32:54.724Z,5.15
2024-03-18T06:33:54.670Z,5.20
2024-03-18T06:34:54.692Z,5.24
2024-03-18T06:35:54.639Z,5.27
2024-03-18T06:36:54.663Z,5.31
2024-03-18T06:37:54.620Z,5.33
2024-03-18T06:38:54.638Z,5.40
2024-03-18T06:39:54.601Z,5.45
2024-03-18T06:40:54.682Z,5.49
2024-03-18T06:41:54.574Z,5.56
2024-03-18T06:42:54.613Z,5.58
2024-03-18T06:43:54.584Z,5.61
2024-03-18T06:44:54.563Z,5.65
2024-03-18T06:45:54.550Z,5.67
2024-03-18T06:46:54.544Z,5.71
2024-03-18T06:47:54.620Z,5.75
2024-03-18T06:48:54.563Z,5.76
2024-03-18T06:49:54.522Z,5.79
2024-03-18T06:50:54.624Z,5.83
2024-03-18T06:51:54.525Z,5.91
2024-03-18T06:52:54.502Z,5.89
2024-03-18T06:53:54.473Z,5.93
2024-03-18T06:54:54.461Z,5.94
2024-03-18T06:55:54.438Z,5.99
2024-03-18T06:56:54.483Z,6.03
2024-03-18T06:57:54.404Z,6.08
2024-03-18T06:58:54.429Z,6.17
2024-03-18T06:59:54.406Z,6.22
2024-03-18T07:00:56.202Z,6.28
2024-03-18T07:01:54.360Z,6.34
2024-03-18T07:02:54.386Z,6.37
2024-03-18T07:03:54.340Z,6.40
2024-03-18T07:04:54.381Z,6.41
2024-03-18T07:05:54.327Z,6.44
2024-03-18T07:06:56.948Z,6.49
2024-03-18T07:07:54.312Z,6.51
2024-03-18T07:08:54.319Z,6.54
2024-03-18T07:09:54.286Z,6.55
2024-03-18T07:10:54.284Z,6.58
2024-03-18T07:11:54.268Z,6.59
2024-03-18T07:12:54.284Z,6.59
2024-03-18T07:13:54.234Z,6.62
2024-03-18T07:14:54.279Z,6.66
2024-03-18T07:15:54.316Z,6.67
2024-03-18T07:16:54.241Z,6.69
2024-03-18T07:17:54.206Z,6.73
2024-03-18T07:18:54.200Z,6.80
2024-03-18T07:20:07.485Z,6.87
2024-03-18T07:20:54.520Z,6.92
2024-03-18T07:21:54.149Z,6.94
2024-03-18T07:22:54.175Z,7.02
2024-03-18T07:23:54.174Z,7.07
2024-03-18T07:24:54.148Z,7.15
2024-03-18T07:25:54.144Z,7.24
2024-03-18T07:26:54.123Z,7.30
2024-03-18T07:27:54.139Z,7.37
2024-03-18T07:28:54.108Z,7.42
2024-03-18T07:29:54.137Z,7.48
2024-03-18T07:30:54.094Z,7.55
2024-03-18T07:31:54.150Z,7.61
2024-03-18T07:32:54.047Z,7.68
2024-03-18T07:33:54.017Z,7.74
2024-03-18T07:35:01.055Z,7.79
2024-03-18T07:35:54.003Z,7.83
2024-03-18T07:36:54.007Z,7.89
2024-03-18T07:37:53.982Z,7.95
2024-03-18T07:38:54.045Z,7.98
2024-03-18T07:39:53.962Z,8.05
2024-03-18T07:40:53.976Z,8.10
2024-03-18T07:41:54.004Z,8.12
2024-03-18T07:42:53.969Z,8.18
2024-03-18T07:43:53.915Z,8.22
2024-03-18T07:44:53.932Z,8.28
2024-03-18T07:45:53.990Z,8.30
2024-03-18T07:46:53.912Z,8.37
2024-03-18T07:47:53.900Z,8.43
2024-03-18T07:48:54.553Z,8.47
2024-03-18T07:49:53.844Z,8.52
2024-03-18T07:50:53.923Z,8.58
2024-03-18T07:51:53.849Z,8.62
2024-03-18T07:52:53.851Z,8.66
2024-03-18T07:53:53.797Z,8.66
2024-03-18T07:54:53.829Z,8.71
2024-03-18T07:55:53.791Z,8.74
2024-03-18T07:56:53.796Z,8.80
2024-03-18T07:57:53.778Z,8.84
2024-03-18T07:58:53.778Z,8.91
2024-03-18T07:59:53.741Z,8.98
2024-03-18T08:00:53.755Z,9.04
2024-03-18T08:01:53.715Z,9.15
2024-03-18T08:02:53.785Z,9.21
2024-03-18T08:03:53.725Z,9.18
2024-03-18T08:04:53.706Z,9.15
2024-03-18T08:05:53.681Z,9.21
2024-03-18T08:06:53.728Z,9.28
2024-03-18T08:07:53.685Z,9.35
2024-03-18T08:08:53.745Z,9.42
2024-03-18T08:09:53.670Z,9.42
2024-03-18T08:10:53.713Z,9.48
2024-03-18T08:11:53.604Z,9.53
2024-03-18T08:12:53.684Z,9.60
2024-03-18T08:13:53.603Z,9.65
2024-03-18T08:14:53.597Z,9.74
2024-03-18T08:15:53.562Z,9.81
2024-03-18T08:16:53.585Z,9.87
2024-03-18T08:17:53.536Z,9.94
2024-03-18T08:18:53.588Z,9.99
2024-03-18T08:19:53.526Z,9.99
2024-03-18T08:20:54.388Z,9.90
2024-03-18T08:21:56.016Z,9.91
2024-03-18T08:22:53.587Z,9.93
2024-03-18T08:23:53.483Z,9.96
2024-03-18T08:24:53.521Z,10.01
2024-03-18T08:25:53.471Z,10.07
2024-03-18T08:26:53.506Z,10.14
2024-03-18T08:27:53.464Z,10.20
2024-03-18T08:28:53.463Z,10.23
2024-03-18T08:29:53.419Z,10.27
2024-03-18T08:30:53.463Z,10.26
2024-03-18T08:31:53.424Z,10.30
2024-03-18T08:33:07.463Z,10.29
2024-03-18T08:34:04.458Z,10.33
2024-03-18T08:34:53.395Z,10.36
2024-03-18T08:35:53.347Z,10.47
2024-03-18T08:36:53.417Z,10.53
2024-03-18T08:37:53.436Z,10.59
2024-03-18T08:38:53.334Z,10.60
2024-03-18T08:39:54.367Z,10.61
2024-03-18T08:40:53.311Z,10.61
2024-03-18T08:41:53.293Z,10.63
2024-03-18T08:42:53.283Z,10.67
2024-03-18T08:43:53.301Z,10.73
2024-03-18T08:44:53.311Z,10.81
2024-03-18T08:45:53.264Z,10.86
2024-03-18T08:46:53.297Z,10.94
2024-03-18T08:47:53.271Z,11.04
2024-03-18T08:48:53.250Z,11.14
2024-03-18T08:49:53.252Z,11.21
2024-03-18T08:50:53.206Z,11.32
2024-03-18T08:51:53.213Z,11.42
2024-03-18T08:52:53.208Z,11.52
2024-03-18T08:53:53.164Z,11.60
2024-03-18T08:54:53.172Z,11.65
2024-03-18T08:55:53.119Z,11.69
2024-03-18T08:56:53.160Z,11.70
2024-03-18T08:57:53.165Z,11.69
2024-03-18T08:58:53.166Z,11.69
2024-03-18T08:59:53.077Z,11.61
2024-03-18T09:00:53.112Z,11.69
2024-03-18T09:01:53.075Z,11.76
2024-03-18T09:02:53.114Z,11.80
2024-03-18T09:03:53.041Z,11.86
2024-03-18T09:04:53.057Z,11.95
2024-03-18T09:05:53.028Z,12.04
2024-03-18T09:06:53.040Z,12.16
2024-03-18T09:07:52.993Z,12.21
2024-03-18T09:08:53.025Z,12.23
2024-03-18T09:09:52.987Z,12.29
2024-03-18T09:10:53.010Z,12.34
2024-03-18T09:11:52.945Z,12.37
2024-03-18T09:12:52.967Z,12.37
2024-03-18T09:13:52.963Z,12.45
2024-03-18T09:14:52.946Z,12.52
2024-03-18T09:15:52.929Z,12.59
2024-03-18T09:16:52.941Z,12.71
2024-03-18T09:17:53.695Z,12.78
2024-03-18T09:18:52.910Z,12.85
2024-03-18T09:19:52.866Z,12.92
2024-03-18T09:20:52.904Z,12.93
2024-03-18T09:21:52.857Z,12.96
2024-03-18T09:22:52.850Z,13.04
2024-03-18T09:23:52.865Z,13.05
2024-03-18T09:24:52.847Z,13.11
2024-03-18T09:25:52.884Z,13.22
2024-03-18T09:26:52.799Z,13.32
2024-03-18T09:27:52.806Z,13.41
2024-03-18T09:28:52.818Z,13.49
2024-03-18T09:29:52.785Z,13.51
2024-03-18T09:30:52.789Z,13.57
2024-03-18T09:31:52.742Z,13.64
2024-03-18T09:32:52.769Z,13.64
2024-03-18T09:33:52.739Z,13.59
2024-03-18T09:34:52.724Z,13.49
2024-03-18T09:35:52.796Z,13.46
2024-03-18T09:36:52.729Z,13.51
2024-03-18T09:37:52.670Z,13.54
2024-03-18T09:38:52.699Z,13.52
2024-03-18T09:39:52.663Z,13.51
2024-03-18T09:40:52.663Z,13.48
2024-03-18T09:41:52.635Z,13.45
2024-03-18T09:42:52.638Z,13.51
2024-03-18T09:43:52.595Z,13.63
2024-03-18T09:44:52.648Z,13.77
2024-03-18T09:45:52.567Z,13.82
2024-03-18T09:46:52.596Z,13.92
2024-03-18T09:47:53.278Z,14.00
2024-03-18T09:48:52.667Z,13.96
2024-03-18T09:49:52.531Z,13.92
2024-03-18T09:50:52.575Z,13.87
2024-03-18T09:51:52.538Z,13.82
2024-03-18T09:52:52.604Z,13.89
2024-03-18T09:53:52.503Z,13.96
2024-03-18T09:54:52.522Z,14.03
2024-03-18T09:55:52.480Z,14.07
2024-03-18T09:56:52.484Z,14.07
2024-03-18T09:57:52.445Z,13.85
2024-03-18T09:58:53.636Z,13.71
2024-03-18T09:59:52.436Z,13.70
2024-03-18T10:00:52.443Z,13.70
2024-03-18T10:01:52.396Z,13.77
2024-03-18T10:02:52.419Z,13.79
2024-03-18T10:03:52.376Z,13.87
2024-03-18T10:04:52.379Z,13.87
2024-03-18T10:05:52.416Z,13.78
2024-03-18T10:06:52.367Z,13.71
2024-03-18T10:07:52.394Z,13.69
2024-03-18T10:08:52.337Z,13.69
2024-03-18T10:09:52.375Z,13.77
2024-03-18T10:10:52.330Z,13.81
2024-03-18T10:11:52.299Z,13.84
2024-03-18T10:12:52.308Z,13.85
2024-03-18T10:13:52.265Z,13.91
2024-03-18T10:14:52.293Z,13.92
2024-03-18T10:15:52.266Z,13.95
2024-03-18T10:16:52.252Z,13.97
2024-03-18T10:17:52.214Z,14.02
2024-03-18T10:18:52.236Z,14.06
2024-03-18T10:19:52.212Z,14.15
2024-03-18T10:20:52.236Z,14.22
2024-03-18T10:21:54.469Z,14.32
2024-03-18T10:22:52.230Z,14.40
2024-03-18T10:23:52.162Z,14.50
2024-03-18T10:24:52.171Z,14.52
2024-03-18T10:25:52.151Z,14.47
2024-03-18T10:26:52.160Z,14.45
2024-03-18T10:27:52.142Z,14.45
2024-03-18T10:28:52.140Z,14.52
2024-03-18T10:29:52.143Z,14.57
2024-03-18T10:30:52.153Z,14.61
2024-03-18T10:31:52.127Z,14.61
2024-03-18T10:32:54.555Z,14.47
2024-03-18T10:33:52.081Z,14.46
2024-03-18T10:34:52.042Z,14.47
2024-03-18T10:35:52.052Z,14.37
2024-03-18T10:36:54.483Z,14.32
2024-03-18T10:37:52.035Z,14.37
2024-03-18T10:38:51.989Z,14.51
2024-03-18T10:39:52.016Z,14.69
2024-03-18T10:40:52.028Z,14.88
2024-03-18T10:41:51.986Z,15.07
2024-03-18T10:42:51.940Z,15.14
2024-03-18T10:43:51.978Z,15.20
2024-03-18T10:44:52.507Z,15.25
2024-03-18T10:45:51.980Z,15.28
2024-03-18T10:46:51.905Z,15.29
2024-03-18T10:47:51.947Z,15.32
2024-03-18T10:48:51.876Z,15.32
2024-03-18T10:49:51.922Z,15.29
2024-03-18T10:50:51.863Z,15.34
2024-03-18T10:51:51.854Z,15.35
2024-03-18T10:52:51.841Z,15.46
2024-03-18T10:53:54.000Z,15.49
2024-03-18T10:54:51.811Z,15.56
2024-03-18T10:55:51.891Z,15.49
2024-03-18T10:56:51.802Z,15.20
2024-03-18T10:57:51.809Z,15.20
2024-03-18T10:58:51.766Z,15.23
2024-03-18T10:59:51.842Z,15.29
2024-03-18T11:00:52.494Z,15.28
2024-03-18T11:01:51.746Z,15.29
2024-03-18T11:02:51.732Z,15.28
2024-03-18T11:03:51.761Z,15.28
2024-03-18T11:04:51.701Z,15.31
2024-03-18T11:05:51.736Z,15.39
2024-03-18T11:06:51.684Z,15.43
2024-03-18T11:08:19.245Z,15.49
2024-03-18T11:09:20.180Z,15.51
2024-03-18T11:10:20.227Z,15.54
2024-03-18T11:11:20.166Z,15.57
2024-03-18T11:12:20.262Z,15.60
2024-03-18T11:13:20.291Z,15.68
2024-03-18T11:16:47.515Z,15.62
2024-03-18T11:17:49.196Z,15.50
2024-03-18T11:18:48.728Z,15.34
2024-03-18T11:19:48.499Z,15.31
2024-03-18T11:20:48.459Z,15.31
2024-03-18T11:21:48.430Z,15.31
2024-03-18T11:22:48.439Z,15.28
2024-03-18T11:23:48.407Z,15.25
2024-03-18T11:24:48.411Z,15.21
2024-03-18T11:25:48.402Z,15.14
2024-03-18T11:26:48.434Z,15.10
2024-03-18T11:27:48.364Z,15.11
2024-03-18T11:28:48.373Z,15.17
2024-03-18T11:29:48.350Z,15.20
2024-03-18T11:30:48.456Z,15.27
2024-03-18T11:31:49.328Z,15.34
2024-03-18T11:32:48.332Z,15.35
2024-03-18T11:33:48.300Z,15.31
2024-03-18T11:34:48.304Z,15.31
2024-03-18T11:35:48.296Z,15.31
2024-03-18T11:36:48.320Z,15.35
2024-03-18T11:37:48.261Z,15.43
2024-03-18T11:38:48.285Z,15.49
2024-03-18T11:39:48.232Z,15.54
2024-03-18T11:40:48.241Z,15.62
2024-03-18T11:41:48.281Z,15.57
2024-03-18T11:42:48.295Z,15.57
2024-03-18T11:43:48.218Z,15.54
2024-03-18T11:44:48.237Z,15.51
2024-03-18T11:45:48.174Z,15.47
2024-03-18T11:46:48.247Z,15.49
2024-03-18T11:47:48.146Z,15.51
2024-03-18T11:48:48.162Z,15.53
2024-03-18T11:49:48.182Z,15.56
2024-03-18T11:50:48.157Z,15.50
2024-03-18T11:51:48.105Z,15.47
2024-03-18T11:52:48.126Z,15.50
2024-03-18T11:53:48.117Z,15.41
2024-03-18T11:54:48.085Z,15.35
2024-03-18T11:55:48.091Z,15.36
2024-03-18T11:56:48.083Z,15.41
2024-03-18T11:57:48.065Z,15.46
2024-03-18T11:58:47.069Z,15.51
2024-03-18T11:59:48.100Z,15.60
2024-03-18T12:00:48.039Z,15.50
2024-03-18T12:01:47.997Z,15.38
2024-03-18T12:02:48.020Z,15.32
2024-03-18T12:03:47.983Z,15.31
2024-03-18T12:04:48.041Z,15.38
2024-03-18T12:05:47.951Z,15.44
2024-03-18T12:06:47.974Z,15.43
2024-03-18T12:07:47.953Z,15.44
2024-03-18T12:08:47.949Z,15.50
2024-03-18T12:09:47.919Z,15.57
2024-03-18T12:10:47.922Z,15.62
2024-03-18T12:11:47.890Z,15.64
2024-03-18T12:12:47.898Z,15.62
2024-03-18T12:13:47.870Z,15.54
2024-03-18T12:14:47.891Z,15.44
2024-03-18T12:15:47.846Z,15.36
2024-03-18T12:16:47.956Z,15.35
2024-03-18T12:17:47.828Z,15.41
2024-03-18T12:18:47.835Z,15.46
2024-03-18T12:19:47.818Z,15.50
2024-03-18T12:20:47.836Z,15.49
2024-03-18T12:21:47.783Z,15.51
2024-03-18T12:22:47.796Z,15.51
2024-03-18T12:23:47.759Z,15.51
2024-03-18T12:24:47.774Z,15.36
2024-03-18T12:25:47.749Z,15.28
2024-03-18T12:26:47.776Z,15.23
2024-03-18T12:27:47.712Z,15.16
2024-03-18T12:28:47.749Z,15.13
2024-03-18T12:29:47.707Z,15.16
2024-03-18T12:30:47.725Z,15.13
2024-03-18T12:31:47.669Z,15.16
2024-03-18T12:32:47.697Z,15.11
2024-03-18T12:33:47.649Z,15.13
2024-03-18T12:34:47.663Z,15.16
2024-03-18T12:35:47.628Z,15.20
2024-03-18T12:36:47.675Z,15.19
2024-03-18T12:37:47.667Z,15.11
2024-03-18T12:38:47.652Z,15.10
2024-03-18T12:39:47.765Z,15.02
2024-03-18T12:40:47.654Z,14.99
2024-03-18T12:41:47.558Z,14.96
2024-03-18T12:42:49.034Z,14.99
2024-03-18T12:43:47.539Z,14.99
2024-03-18T12:44:47.544Z,15.01
2024-03-18T12:45:47.516Z,14.99
2024-03-18T12:46:47.524Z,14.95
2024-03-18T12:47:47.492Z,14.92
2024-03-18T12:48:47.586Z,14.89
2024-03-18T12:49:47.494Z,14.89
2024-03-18T12:50:47.492Z,14.84
2024-03-18T12:51:47.449Z,14.78
2024-03-18T12:52:47.496Z,14.72
2024-03-18T12:53:47.437Z,14.65
2024-03-18T12:54:47.447Z,14.64
2024-03-18T12:55:47.404Z,14.61
2024-03-18T12:56:47.410Z,14.60
2024-03-18T12:57:47.382Z,14.55
2024-03-18T12:58:47.416Z,14.52
2024-03-18T12:59:47.360Z,14.52
2024-03-18T13:00:47.378Z,14.54
2024-03-18T13:01:47.339Z,14.57
2024-03-18T13:02:47.383Z,14.55
2024-03-18T13:03:47.326Z,14.47
2024-03-18T13:04:47.344Z,14.45
2024-03-18T13:05:47.297Z,14.40
2024-03-18T13:06:47.299Z,14.39
2024-03-18T13:07:47.270Z,14.40
2024-03-18T13:08:47.294Z,14.42
2024-03-18T13:09:47.250Z,14.45
2024-03-18T13:10:47.267Z,14.46
2024-03-18T13:11:47.225Z,14.46